SULAYMANIYAH INTERNATIONAL AIRPORT
  • SulyAir
  • SulyAir
1 1
Arrival

ArrivalsMore >>

Departure

DeparturesMore >>

TAF

TAF ORSU 212300Z 2200/2224 04015KT CAVOK
TEMPO 2202/2212 G25KT=

METARs

METAR ORSU 220200Z 04017KT CAVOK 01/M12 Q1029=